createdAt,value
2022-08-22T00:01:49.945Z,3.33
2022-08-22T00:02:42.951Z,2.72
2022-08-22T00:02:54.636Z,2.97
2022-08-22T00:04:43.427Z,2.92
2022-08-22T00:07:38.815Z,3.05
2022-08-22T00:10:22.788Z,2.70
2022-08-22T00:13:08.610Z,3.15
2022-08-22T00:15:44.287Z,3.35
2022-08-22T00:18:16.230Z,3.53
2022-08-22T00:20:54.174Z,2.92
2022-08-22T00:23:26.859Z,2.97
2022-08-22T00:26:22.775Z,3.15
2022-08-22T00:29:11.749Z,3.30
2022-08-22T00:31:45.907Z,3.17
2022-08-22T00:34:36.507Z,2.88
2022-08-22T00:37:26.552Z,3.08
2022-08-22T00:40:03.328Z,3.67
2022-08-22T00:42:40.149Z,3.03
2022-08-22T00:45:16.861Z,3.28
2022-08-22T00:48:01.133Z,3.03
2022-08-22T00:50:46.867Z,3.40
2022-08-22T00:53:51.431Z,3.50
2022-08-22T00:56:40.494Z,3.00
2022-08-22T00:59:39.807Z,2.92
2022-08-22T01:02:25.450Z,3.28
2022-08-22T01:05:03.471Z,3.13
2022-08-22T01:07:39.197Z,3.58
2022-08-22T01:10:42.683Z,3.22
2022-08-22T01:13:38.811Z,2.95
2022-08-22T01:16:18.651Z,3.00
2022-08-22T01:18:54.474Z,3.17
2022-08-22T01:21:39.826Z,3.10
2022-08-22T01:24:59.811Z,3.38
2022-08-22T01:27:46.871Z,2.80
2022-08-22T01:30:32.290Z,2.80
2022-08-22T01:33:16.785Z,3.10
2022-08-22T08:40:45.143Z,2.50
2022-08-22T08:43:29.601Z,2.50
2022-08-22T08:46:08.655Z,2.75
2022-08-22T08:49:06.542Z,2.42
2022-08-22T08:51:42.680Z,2.60
2022-08-22T08:54:30.475Z,2.63
2022-08-22T08:57:10.726Z,2.33
2022-08-22T08:59:49.149Z,2.35
2022-08-22T09:05:45.540Z,2.50
2022-08-22T09:08:23.836Z,2.20
2022-08-22T09:11:19.302Z,2.40
2022-08-22T09:14:27.182Z,2.38
2022-08-22T09:17:00.693Z,2.30
2022-08-22T09:19:53.218Z,2.50
2022-08-22T09:22:49.856Z,2.50
2022-08-22T09:25:23.481Z,2.35
2022-08-22T09:28:01.434Z,2.30
2022-08-22T09:30:45.240Z,2.47
2022-08-22T09:33:14.781Z,2.38
2022-08-22T09:38:48.304Z,2.72
2022-08-22T09:41:37.771Z,2.40
2022-08-22T09:44:13.610Z,2.50
2022-08-22T09:47:02.511Z,2.72
2022-08-22T09:49:52.028Z,2.67
2022-08-22T09:52:45.559Z,2.20
2022-08-22T09:55:35.665Z,2.25
2022-08-22T09:58:27.989Z,1.98
2022-08-22T10:00:55.894Z,2.10
2022-08-22T10:03:48.267Z,2.20
2022-08-22T10:06:22.388Z,2.10
2022-08-22T10:09:04.938Z,1.77
2022-08-22T10:11:42.387Z,2.08
2022-08-22T10:14:22.437Z,1.70
2022-08-22T10:17:21.799Z,1.60
2022-08-22T10:19:59.916Z,1.77
2022-08-22T10:22:37.609Z,1.98
2022-08-22T10:25:28.593Z,1.67
2022-08-22T10:27:57.701Z,2.00
2022-08-22T10:30:33.310Z,2.05
2022-08-22T10:33:12.157Z,1.60
2022-08-22T10:35:51.742Z,1.80
2022-08-22T10:38:46.303Z,1.65
2022-08-22T10:41:19.775Z,2.00
2022-08-22T10:44:22.779Z,1.75
2022-08-22T10:46:54.220Z,1.80
2022-08-22T10:49:29.289Z,1.88
2022-08-22T10:52:15.618Z,1.70
2022-08-22T10:54:55.278Z,1.92
2022-08-22T10:57:52.988Z,1.80
2022-08-22T11:00:58.588Z,1.50
2022-08-22T11:03:28.692Z,1.50
2022-08-22T11:05:59.436Z,1.70
2022-08-22T11:08:35.172Z,1.60
2022-08-22T11:11:14.251Z,1.80
2022-08-22T11:13:59.550Z,1.33
2022-08-22T11:16:42.274Z,1.30
2022-08-22T11:21:46.310Z,1.83
2022-08-22T11:24:34.809Z,2.00
2022-08-22T11:27:14.543Z,1.95
2022-08-22T11:30:08.212Z,2.33
2022-08-22T11:32:57.831Z,1.83
2022-08-22T11:35:43.851Z,1.65
2022-08-22T11:38:32.393Z,1.58
2022-08-22T11:41:24.056Z,1.60
2022-08-22T11:44:11.809Z,1.60
2022-08-22T11:46:41.072Z,1.90
2022-08-22T11:49:39.522Z,1.65
2022-08-22T11:52:28.957Z,1.80
2022-08-22T11:55:19.738Z,1.80
2022-08-22T11:57:51.261Z,1.90
2022-08-22T12:00:24.020Z,1.73
2022-08-22T12:03:16.437Z,1.58
2022-08-22T12:06:05.137Z,1.77
2022-08-22T12:08:40.747Z,1.75
2022-08-22T12:11:24.628Z,1.58
2022-08-22T12:14:02.330Z,1.95
2022-08-22T12:16:51.939Z,2.03
2022-08-22T12:19:25.369Z,1.83
2022-08-22T12:22:01.300Z,2.50
2022-08-22T12:24:38.758Z,1.80
2022-08-22T12:27:28.838Z,1.90
2022-08-22T12:30:14.220Z,1.70
2022-08-22T12:32:45.798Z,1.70
2022-08-22T12:35:40.370Z,2.20
2022-08-22T12:38:29.269Z,1.75
2022-08-22T12:41:08.214Z,1.73
2022-08-22T12:43:53.055Z,1.88
2022-08-22T12:46:38.721Z,1.70
2022-08-22T12:49:41.152Z,2.03
2022-08-22T12:52:19.597Z,1.58
2022-08-22T12:55:06.808Z,1.83
2022-08-22T12:57:50.290Z,1.60
2022-08-22T13:00:26.902Z,1.50
2022-08-22T13:02:57.352Z,2.08
2022-08-22T13:05:27.393Z,2.60
2022-08-22T13:08:06.316Z,1.60
2022-08-22T13:10:45.141Z,1.63
2022-08-22T13:13:38.655Z,1.73
2022-08-22T13:16:15.540Z,1.55
2022-08-22T13:19:00.910Z,1.50
2022-08-22T13:21:40.083Z,1.98
2022-08-22T13:24:10.855Z,1.70
2022-08-22T13:29:42.625Z,1.63
2022-08-22T13:32:16.556Z,1.50
2022-08-22T13:34:46.454Z,1.60
2022-08-22T13:37:16.689Z,1.60
2022-08-22T13:39:46.213Z,1.40
2022-08-22T13:42:27.750Z,1.73
2022-08-22T13:44:58.587Z,1.85
2022-08-22T13:47:27.021Z,1.58
2022-08-22T13:50:14.943Z,1.70
2022-08-22T13:52:52.203Z,1.88
2022-08-22T13:55:29.426Z,1.90
2022-08-22T13:58:38.126Z,1.95
2022-08-22T14:01:19.947Z,2.03
2022-08-22T14:04:28.456Z,2.03
2022-08-22T14:07:04.471Z,2.40
2022-08-22T14:09:58.544Z,2.45
2022-08-22T14:12:33.876Z,2.08
2022-08-22T14:15:21.110Z,2.17
2022-08-22T14:17:58.652Z,2.10
2022-08-22T14:20:32.545Z,2.30
2022-08-22T14:23:13.126Z,2.83
2022-08-22T14:25:41.885Z,2.60
2022-08-22T14:28:27.870Z,2.10
2022-08-22T14:31:14.339Z,2.63
2022-08-22T14:33:45.336Z,2.65
2022-08-22T14:36:18.005Z,2.70
2022-08-22T14:38:53.257Z,2.65
2022-08-22T14:41:52.439Z,2.65
2022-08-22T14:44:30.138Z,2.40
2022-08-22T14:47:01.482Z,2.35
2022-08-22T14:49:50.977Z,2.38
2022-08-22T14:52:51.867Z,1.75
2022-08-22T14:55:22.063Z,1.92
2022-08-22T14:58:00.118Z,1.90
2022-08-22T15:00:37.103Z,1.63
2022-08-22T15:03:29.925Z,1.80
2022-08-22T15:06:09.290Z,1.90
2022-08-22T15:08:46.254Z,1.77
2022-08-22T15:11:22.171Z,1.63
2022-08-22T15:13:57.059Z,2.00
2022-08-22T15:16:29.380Z,1.70
2022-08-22T15:18:56.400Z,1.80
2022-08-22T15:21:24.508Z,1.77
2022-08-22T15:23:53.448Z,1.55
2022-08-22T15:26:25.050Z,1.50
2022-08-22T15:29:07.334Z,1.63
2022-08-22T15:31:34.596Z,1.50
2022-08-22T15:34:12.915Z,1.40
2022-08-22T15:37:09.832Z,1.40
2022-08-22T15:40:32.739Z,1.40
2022-08-22T15:43:13.558Z,1.52
2022-08-22T15:45:43.878Z,1.33
2022-08-22T15:48:33.669Z,1.40
2022-08-22T15:51:09.426Z,1.60
2022-08-22T15:53:58.440Z,1.73
2022-08-22T15:56:27.331Z,1.77
2022-08-22T15:59:48.175Z,1.77
2022-08-22T16:03:17.257Z,1.85
2022-08-22T16:05:55.188Z,1.65
2022-08-22T16:08:29.574Z,1.70
2022-08-22T16:11:02.857Z,1.42
2022-08-22T16:13:29.912Z,1.70
2022-08-22T16:16:02.683Z,1.20
2022-08-22T16:18:42.570Z,1.40
2022-08-22T16:21:18.148Z,1.55
2022-08-22T16:23:51.071Z,1.80
2022-08-22T16:26:30.268Z,1.80
2022-08-22T16:29:07.392Z,1.50
2022-08-22T16:31:46.299Z,1.40
2022-08-22T16:34:18.726Z,1.50
2022-08-22T16:37:18.108Z,1.40
2022-08-22T16:39:52.414Z,1.50
2022-08-22T16:42:21.816Z,1.40
2022-08-22T16:44:49.358Z,1.60
2022-08-22T16:47:21.739Z,1.50
2022-08-22T16:49:51.734Z,1.60
2022-08-22T16:52:22.265Z,1.80
2022-08-22T16:54:52.887Z,2.10
2022-08-22T16:58:05.771Z,1.63
2022-08-22T17:00:58.019Z,1.98
2022-08-22T17:03:43.701Z,2.00
2022-08-22T17:06:20.726Z,1.58
2022-08-22T17:09:16.339Z,1.67
2022-08-22T17:12:05.528Z,1.65
2022-08-22T17:14:52.206Z,1.50
2022-08-22T17:17:57.047Z,1.80
2022-08-22T17:20:46.553Z,1.73
2022-08-22T17:23:39.379Z,1.90
2022-08-22T17:26:21.339Z,2.00
2022-08-22T17:31:33.926Z,2.40
2022-08-22T17:34:02.720Z,2.60
2022-08-22T17:36:39.463Z,2.95
2022-08-22T17:39:44.931Z,2.63
2022-08-22T17:42:21.305Z,2.65
2022-08-22T17:45:18.177Z,1.90
2022-08-22T17:48:12.392Z,1.70
2022-08-22T17:50:47.135Z,1.90
2022-08-22T17:53:33.456Z,1.55
2022-08-22T17:56:17.166Z,1.70
2022-08-22T17:59:06.792Z,1.70
2022-08-22T18:01:39.678Z,1.77
2022-08-22T18:04:08.220Z,1.60
2022-08-22T18:06:36.660Z,2.03
2022-08-22T18:09:15.034Z,1.80
2022-08-22T18:11:58.195Z,1.55
2022-08-22T18:14:52.893Z,1.80
2022-08-22T18:18:01.418Z,1.42
2022-08-22T18:20:48.645Z,1.60
2022-08-22T18:23:45.090Z,1.83
2022-08-22T18:26:21.373Z,1.40
2022-08-22T18:29:13.275Z,1.75
2022-08-22T18:32:14.099Z,1.52
2022-08-22T18:34:43.825Z,1.42
2022-08-22T18:37:42.270Z,1.90
2022-08-22T18:40:33.133Z,2.13
2022-08-22T18:43:13.540Z,1.50
2022-08-22T18:45:46.540Z,1.83
2022-08-22T18:48:30.074Z,1.60
2022-08-22T18:51:25.118Z,1.75
2022-08-22T18:54:25.069Z,1.60
2022-08-22T18:57:05.635Z,1.80
2022-08-22T18:59:44.320Z,1.90
2022-08-22T19:02:57.335Z,1.60
2022-08-22T19:05:46.400Z,1.65
2022-08-22T19:08:42.314Z,1.80
2022-08-22T19:11:13.321Z,1.80
2022-08-22T19:13:52.390Z,1.80
2022-08-22T19:16:57.623Z,1.85
2022-08-22T19:20:13.233Z,1.80
2022-08-22T19:22:40.462Z,1.63
2022-08-22T19:25:10.486Z,1.63
2022-08-22T19:27:47.580Z,1.60
2022-08-22T19:30:44.017Z,1.60
2022-08-22T19:33:27.673Z,1.30
2022-08-22T19:36:30.691Z,1.50
2022-08-22T19:39:10.817Z,1.52
2022-08-22T19:44:19.242Z,1.55
2022-08-22T19:47:27.098Z,1.35
2022-08-22T19:50:01.396Z,1.45
2022-08-22T19:52:46.772Z,1.50
2022-08-22T19:55:37.581Z,1.42
2022-08-22T19:58:32.052Z,1.25
2022-08-22T20:01:20.467Z,1.35
2022-08-22T20:03:58.525Z,1.10
2022-08-22T20:06:44.350Z,1.40
2022-08-22T20:09:26.458Z,1.13
2022-08-22T20:12:15.942Z,1.30
2022-08-22T20:14:44.118Z,1.40
2022-08-22T20:17:26.064Z,1.40
2022-08-22T20:22:47.359Z,1.30
2022-08-22T20:25:42.930Z,1.50
2022-08-22T20:28:44.448Z,1.65
2022-08-22T20:31:19.366Z,1.30
2022-08-22T20:33:46.672Z,1.65
2022-08-22T20:36:27.571Z,1.50
2022-08-22T20:39:09.261Z,1.70
2022-08-22T20:41:39.788Z,1.73
2022-08-22T20:44:40.139Z,1.70
2022-08-22T20:47:19.514Z,1.70
2022-08-22T20:49:50.555Z,2.13
2022-08-22T20:52:23.152Z,1.98
2022-08-22T20:55:02.774Z,1.75
2022-08-22T20:57:29.888Z,1.98
2022-08-22T21:00:19.201Z,1.85
2022-08-22T21:03:24.549Z,1.80
2022-08-22T21:05:51.771Z,1.90
2022-08-22T21:08:24.221Z,1.70
2022-08-22T21:11:21.918Z,1.80
2022-08-22T21:13:48.922Z,1.60
2022-08-22T21:16:22.591Z,1.90
2022-08-22T21:18:51.242Z,1.75
2022-08-22T21:21:22.755Z,1.70
2022-08-22T21:24:16.782Z,1.80
2022-08-22T21:26:51.512Z,1.88
2022-08-22T21:29:20.954Z,2.20
2022-08-22T21:31:47.861Z,1.83
2022-08-22T21:34:28.630Z,1.70
2022-08-22T21:36:58.582Z,1.73
2022-08-22T21:39:27.283Z,1.70
2022-08-22T21:42:24.653Z,1.50
2022-08-22T21:44:59.479Z,1.60
2022-08-22T21:47:31.963Z,1.73
2022-08-22T21:50:03.046Z,1.90
2022-08-22T21:52:31.608Z,1.90
2022-08-22T21:55:26.282Z,2.00
2022-08-22T21:58:04.603Z,1.98
2022-08-22T22:00:49.545Z,2.00
2022-08-22T22:03:18.536Z,2.10
2022-08-22T22:05:45.626Z,2.00
2022-08-22T22:08:12.984Z,2.13
2022-08-22T22:10:40.746Z,2.00
2022-08-22T22:13:07.838Z,1.88
2022-08-22T22:15:44.103Z,1.73
2022-08-22T22:18:12.660Z,1.80
2022-08-22T22:20:39.796Z,1.85
2022-08-22T22:23:06.936Z,1.85
2022-08-22T22:25:39.507Z,1.60
2022-08-22T22:28:25.977Z,1.60
2022-08-22T22:30:55.965Z,2.10
2022-08-22T22:33:24.853Z,2.15
2022-08-22T22:35:52.948Z,2.30
2022-08-22T22:38:23.918Z,2.38
2022-08-22T22:40:52.202Z,2.20
2022-08-22T22:43:19.548Z,2.10
2022-08-22T22:45:46.590Z,2.30
2022-08-22T22:48:24.561Z,2.03
2022-08-22T22:50:52.892Z,2.20
2022-08-22T22:53:21.445Z,1.83
2022-08-22T22:56:00.976Z,2.33
2022-08-22T22:58:28.798Z,2.33
2022-08-22T23:00:57.405Z,1.90
2022-08-22T23:03:26.735Z,2.42
2022-08-22T23:05:53.950Z,2.28
2022-08-22T23:08:20.937Z,1.90
2022-08-22T23:10:47.972Z,2.00
2022-08-22T23:13:15.432Z,1.60
2022-08-22T23:15:42.741Z,1.60
2022-08-22T23:18:10.008Z,1.80
2022-08-22T23:20:37.135Z,1.48
2022-08-22T23:23:04.091Z,1.67
2022-08-22T23:25:31.045Z,1.50
2022-08-22T23:27:57.921Z,1.90
2022-08-22T23:30:24.840Z,1.58
2022-08-22T23:32:51.818Z,1.48
2022-08-22T23:35:18.777Z,1.48
2022-08-22T23:37:45.669Z,1.30
2022-08-22T23:40:12.920Z,1.60
2022-08-22T23:42:39.911Z,1.60
2022-08-22T23:45:07.014Z,1.35
2022-08-22T23:47:33.907Z,1.35
2022-08-22T23:50:05.836Z,1.30
2022-08-22T23:52:33.360Z,1.40
2022-08-22T23:55:00.277Z,1.63
2022-08-22T23:57:30.494Z,1.40
2022-08-22T23:59:58.443Z,1.50
